Time;durP1;ratioP1;P1;durP2;ratioP2;P2;SDS_P1;SDS_P2;PMS_P1;PMS_P2;Temp;Humidity;BMP_temperature;BMP_pressure;BME280_temperature;BME280_humidity;BME280_pressure;Samples;Min_cycle;Max_cycle;Signal;HPM_P1;HPM_P2
2024/01/25 00:01:50;;;;;;;52.92;48.35;;;8.10;99.90;;;;;;12606102;28;20040;-87
2024/01/25 00:07:52;;;;;;;50.50;46.67;;;8.10;99.90;;;;;;12616129;28;20122;-83
2024/01/25 00:13:54;;;;;;;53.55;49.05;;;8.00;99.90;;;;;;12634321;28;20071;-86
2024/01/25 00:19:56;;;;;;;54.97;51.08;;;8.00;99.90;;;;;;12637482;28;20052;-85
2024/01/25 00:25:59;;;;;;;50.47;46.50;;;8.00;99.90;;;;;;12613883;28;20044;-84
2024/01/25 00:32:01;;;;;;;55.45;51.65;;;8.00;99.90;;;;;;12633403;28;20500;-87
2024/01/25 00:38:04;;;;;;;54.45;49.85;;;7.90;99.90;;;;;;12604165;28;20098;-80
2024/01/25 00:44:06;;;;;;;56.78;52.58;;;7.90;99.90;;;;;;12621967;28;20044;-80
2024/01/25 00:50:08;;;;;;;54.85;50.88;;;7.90;99.90;;;;;;12615934;28;20052;-80
2024/01/25 00:56:11;;;;;;;62.25;57.15;;;7.90;99.90;;;;;;12611045;28;20052;-81
2024/01/25 01:02:13;;;;;;;61.17;56.60;;;7.90;99.90;;;;;;12627654;28;20555;-80
2024/01/25 01:08:16;;;;;;;63.72;59.03;;;7.80;99.90;;;;;;12605140;28;20052;-81
2024/01/25 01:14:18;;;;;;;59.15;55.05;;;7.90;99.90;;;;;;12601929;28;20058;-81
2024/01/25 01:20:20;;;;;;;59.42;54.97;;;7.80;99.90;;;;;;12633568;28;20565;-79
2024/01/25 01:26:22;;;;;;;63.15;58.28;;;7.90;99.90;;;;;;12626740;28;20178;-80
2024/01/25 01:32:24;;;;;;;62.88;58.60;;;7.80;99.90;;;;;;12622631;28;20052;-80
2024/01/25 01:38:26;;;;;;;65.70;60.85;;;7.90;99.90;;;;;;12601072;28;20089;-79
2024/01/25 01:44:27;;;;;;;66.55;61.95;;;7.80;99.90;;;;;;12612710;28;20102;-82
2024/01/25 01:50:29;;;;;;;69.38;64.35;;;7.80;99.90;;;;;;12611625;28;20043;-86
2024/01/25 01:56:32;;;;;;;67.13;62.45;;;7.80;99.90;;;;;;12617555;28;20057;-86
2024/01/25 02:02:34;;;;;;;71.13;65.53;;;7.80;99.90;;;;;;12585205;28;20052;-84
2024/01/25 02:08:36;;;;;;;73.68;68.65;;;7.90;99.90;;;;;;12596846;28;20056;-84
2024/01/25 02:14:38;;;;;;;72.93;67.63;;;7.80;99.90;;;;;;12586811;28;20056;-86
2024/01/25 02:20:40;;;;;;;71.22;66.72;;;7.70;99.90;;;;;;12608599;28;20500;-86
2024/01/25 02:26:42;;;;;;;71.43;65.85;;;7.70;99.90;;;;;;12601374;28;20058;-86
2024/01/25 02:32:44;;;;;;;71.60;66.13;;;7.60;99.90;;;;;;12619073;28;20052;-85
2024/01/25 02:38:46;;;;;;;76.22;71.47;;;7.60;99.90;;;;;;12603771;28;20055;-87
2024/01/25 02:44:49;;;;;;;75.47;70.38;;;7.50;99.90;;;;;;12608959;28;20400;-84
2024/01/25 02:50:52;;;;;;;79.60;74.43;;;7.60;99.90;;;;;;12614417;28;20427;-84
2024/01/25 02:56:54;;;;;;;80.50;75.05;;;7.60;99.90;;;;;;12609375;28;20067;-84
2024/01/25 03:02:56;;;;;;;82.75;77.20;;;7.50;99.90;;;;;;12618977;28;20059;-79
2024/01/25 03:08:58;;;;;;;85.80;80.50;;;7.40;99.90;;;;;;12646937;28;20127;-82
2024/01/25 03:14:59;;;;;;;94.07;88.40;;;7.50;99.90;;;;;;12630779;28;20056;-80
2024/01/25 03:21:01;;;;;;;96.00;89.03;;;7.40;99.90;;;;;;12615317;28;20049;-80
2024/01/25 03:27:04;;;;;;;89.78;83.90;;;7.30;99.90;;;;;;12611014;28;20044;-80
2024/01/25 03:33:06;;;;;;;100.07;93.47;;;7.30;99.90;;;;;;12608976;28;20507;-80
2024/01/25 03:39:08;;;;;;;102.25;95.60;;;7.30;99.90;;;;;;12625479;28;20078;-80
2024/01/25 03:45:10;;;;;;;100.25;94.05;;;7.20;99.90;;;;;;12596957;28;20055;-80
2024/01/25 03:51:12;;;;;;;93.70;86.55;;;7.10;99.90;;;;;;12601644;28;20052;-81
2024/01/25 03:57:13;;;;;;;96.70;90.05;;;7.20;99.90;;;;;;12630004;28;20139;-82
2024/01/25 04:03:15;;;;;;;96.85;90.25;;;7.00;99.90;;;;;;12628014;28;20492;-81
2024/01/25 04:09:17;;;;;;;99.93;92.75;;;7.00;99.90;;;;;;12619839;28;20153;-80
2024/01/25 04:15:19;;;;;;;96.68;89.72;;;6.90;99.90;;;;;;12615734;28;22192;-81
2024/01/25 04:21:22;;;;;;;96.28;89.35;;;6.90;99.90;;;;;;12603877;28;20064;-80
2024/01/25 04:27:24;;;;;;;94.85;88.30;;;6.80;99.90;;;;;;12611091;28;20416;-81
2024/01/25 04:33:25;;;;;;;90.70;84.03;;;6.70;99.90;;;;;;12621210;28;20052;-80
2024/01/25 04:39:28;;;;;;;88.63;82.43;;;6.60;99.90;;;;;;12606959;28;20423;-80
2024/01/25 04:45:30;;;;;;;88.10;81.97;;;6.70;99.90;;;;;;12600846;28;20089;-80
2024/01/25 04:51:31;;;;;;;92.25;85.47;;;6.60;99.90;;;;;;12601754;28;20519;-81
2024/01/25 04:57:33;;;;;;;93.07;86.13;;;6.40;99.90;;;;;;12603424;28;20052;-80
2024/01/25 05:03:35;;;;;;;86.32;80.15;;;6.30;99.90;;;;;;12631693;28;20095;-81
2024/01/25 05:09:37;;;;;;;82.38;75.95;;;6.30;99.90;;;;;;12606762;28;20049;-81
2024/01/25 05:15:40;;;;;;;82.53;76.30;;;6.40;99.90;;;;;;12623103;28;20048;-81
2024/01/25 05:21:42;;;;;;;84.40;78.28;;;6.50;99.90;;;;;;12584378;28;20115;-84
2024/01/25 05:27:44;;;;;;;81.75;75.93;;;6.50;99.90;;;;;;12639469;28;20052;-84
2024/01/25 05:33:47;;;;;;;84.95;79.25;;;6.60;99.90;;;;;;12601980;28;20045;-85
2024/01/25 05:39:49;;;;;;;82.35;76.35;;;6.50;99.90;;;;;;12602432;28;20109;-84
2024/01/25 05:45:52;;;;;;;83.50;77.47;;;6.60;99.90;;;;;;12612190;28;20052;-84
2024/01/25 05:51:54;;;;;;;85.20;78.75;;;6.50;99.90;;;;;;12587541;28;20077;-83
2024/01/25 05:57:56;;;;;;;85.03;78.82;;;6.50;99.90;;;;;;12614642;28;20056;-83
2024/01/25 06:03:59;;;;;;;83.13;76.60;;;6.50;99.90;;;;;;12598131;28;20048;-83
2024/01/25 06:10:01;;;;;;;80.20;74.43;;;6.50;99.90;;;;;;12605128;28;20057;-82
2024/01/25 06:16:03;;;;;;;82.80;76.55;;;6.40;99.90;;;;;;12618389;28;20094;-82
2024/01/25 06:22:05;;;;;;;82.60;75.85;;;6.40;99.90;;;;;;12605477;28;20059;-84
2024/01/25 06:28:07;;;;;;;83.60;77.65;;;6.40;99.90;;;;;;12618610;28;20052;-83
2024/01/25 06:34:09;;;;;;;82.57;76.18;;;6.20;99.90;;;;;;12608367;28;20078;-80
2024/01/25 06:40:11;;;;;;;80.50;73.72;;;6.20;99.90;;;;;;12608742;28;20048;-79
2024/01/25 06:46:13;;;;;;;82.72;76.93;;;6.10;99.90;;;;;;12607549;28;20040;-81
2024/01/25 06:52:15;;;;;;;80.28;73.88;;;6.10;99.90;;;;;;12594245;28;20060;-79
2024/01/25 06:58:18;;;;;;;78.47;72.75;;;6.10;99.90;;;;;;12643884;28;20053;-80
2024/01/25 07:04:21;;;;;;;77.90;71.72;;;6.10;99.90;;;;;;12604284;28;20041;-79
2024/01/25 07:10:23;;;;;;;78.25;71.82;;;6.10;99.90;;;;;;12602991;28;20044;-78
2024/01/25 07:16:25;;;;;;;77.82;72.00;;;6.00;99.90;;;;;;12633856;28;20138;-79
2024/01/25 07:22:27;;;;;;;78.20;72.55;;;6.00;99.90;;;;;;12606995;28;20484;-81
2024/01/25 07:28:29;;;;;;;79.82;74.10;;;6.00;99.90;;;;;;12633812;28;20055;-79
2024/01/25 07:34:31;;;;;;;81.85;75.35;;;6.00;99.90;;;;;;12631676;28;20052;-80
2024/01/25 07:40:34;;;;;;;81.97;75.78;;;5.90;99.90;;;;;;12614760;28;20056;-84
2024/01/25 07:46:36;;;;;;;81.35;74.78;;;5.90;99.90;;;;;;12631679;28;20537;-85
2024/01/25 07:52:38;;;;;;;80.28;74.18;;;6.00;99.90;;;;;;12628282;28;20059;-84
2024/01/25 07:58:40;;;;;;;84.43;77.55;;;6.00;99.90;;;;;;12630354;28;20384;-86
2024/01/25 08:04:42;;;;;;;88.60;82.13;;;5.90;99.90;;;;;;12623638;28;20221;-86
2024/01/25 08:10:45;;;;;;;80.28;73.82;;;5.90;99.90;;;;;;12653718;28;20055;-85
2024/01/25 08:16:48;;;;;;;87.32;80.88;;;6.00;99.90;;;;;;12647415;28;20056;-83
2024/01/25 08:22:50;;;;;;;84.10;78.13;;;6.00;99.90;;;;;;12609727;28;20506;-85
2024/01/25 08:28:51;;;;;;;81.85;75.45;;;6.00;99.90;;;;;;12628936;28;20051;-85
2024/01/25 08:34:53;;;;;;;79.95;72.65;;;6.00;99.90;;;;;;12626810;28;20063;-83
2024/01/25 08:40:58;;;;;;;78.88;72.38;;;6.00;99.90;;;;;;12620815;28;20135;-84
2024/01/25 08:47:00;;;;;;;75.88;70.10;;;6.00;99.90;;;;;;12624972;28;20434;-84
2024/01/25 08:53:02;;;;;;;77.93;71.97;;;6.10;99.90;;;;;;12592236;28;20049;-86
2024/01/25 08:59:03;;;;;;;80.28;74.03;;;6.10;99.90;;;;;;12602627;28;20092;-84
2024/01/25 09:05:06;;;;;;;85.05;78.75;;;6.10;99.90;;;;;;12605007;28;20411;-85
2024/01/25 09:11:08;;;;;;;84.00;77.85;;;6.10;99.90;;;;;;12606334;28;20119;-85
2024/01/25 09:17:10;;;;;;;87.82;81.82;;;6.10;99.90;;;;;;12607637;28;20079;-86
2024/01/25 09:23:13;;;;;;;87.60;80.43;;;6.20;99.90;;;;;;12595707;28;20052;-83
2024/01/25 09:29:15;;;;;;;85.95;80.45;;;6.30;99.90;;;;;;12602168;28;20060;-85
2024/01/25 09:35:17;;;;;;;91.32;85.05;;;6.50;99.90;;;;;;12602267;28;20066;-85
2024/01/25 09:41:19;;;;;;;92.00;85.00;;;6.60;99.90;;;;;;12609933;28;20108;-85
2024/01/25 09:47:22;;;;;;;95.50;89.03;;;6.60;99.90;;;;;;12591340;28;20083;-86
2024/01/25 09:53:24;;;;;;;94.82;87.97;;;6.70;99.90;;;;;;12607290;28;20432;-85
2024/01/25 09:59:27;;;;;;;95.78;89.35;;;6.70;99.90;;;;;;12616146;28;20059;-85
2024/01/25 10:05:29;;;;;;;101.68;94.57;;;6.70;99.90;;;;;;12594675;28;20085;-85
2024/01/25 10:11:35;;;;;;;101.47;93.85;;;6.70;99.90;;;;;;12600373;28;20040;-84
2024/01/25 10:17:45;;;;;;;97.55;91.07;;;6.70;99.90;;;;;;12590607;28;20049;-85
2024/01/25 10:24:07;;;;;;;96.22;88.93;;;6.70;99.90;;;;;;12611568;28;20228;-86
2024/01/25 10:30:10;;;;;;;95.90;89.22;;;6.60;99.90;;;;;;12601716;28;20055;-87
2024/01/25 10:36:14;;;;;;;91.47;84.68;;;6.60;99.90;;;;;;12609142;28;20067;-85
2024/01/25 10:42:15;;;;;;;92.25;85.53;;;6.70;99.90;;;;;;12613077;28;20086;-84
2024/01/25 10:48:17;;;;;;;95.53;88.38;;;6.80;99.90;;;;;;12613427;28;20093;-84
2024/01/25 10:54:20;;;;;;;93.25;87.15;;;6.80;99.90;;;;;;12544944;28;20078;-85
2024/01/25 11:00:22;;;;;;;95.40;88.72;;;6.90;99.90;;;;;;12531747;28;20524;-86
2024/01/25 11:06:27;;;;;;;100.32;93.32;;;7.00;99.90;;;;;;12516270;28;20107;-86
2024/01/25 11:12:29;;;;;;;103.63;95.97;;;7.00;99.90;;;;;;12524319;28;20060;-84
2024/01/25 11:18:33;;;;;;;110.65;103.70;;;7.00;99.90;;;;;;12530050;28;20199;-84
2024/01/25 11:24:39;;;;;;;102.30;95.20;;;7.00;99.90;;;;;;12546744;28;20611;-84
2024/01/25 11:30:41;;;;;;;102.07;95.32;;;7.10;99.90;;;;;;12542123;28;20056;-84
2024/01/25 11:36:44;;;;;;;99.57;93.05;;;7.10;99.90;;;;;;12525198;28;20050;-84
2024/01/25 11:42:50;;;;;;;102.90;95.40;;;7.10;99.90;;;;;;12547648;28;20064;-86
2024/01/25 11:48:52;;;;;;;107.30;100.43;;;7.20;99.90;;;;;;12531123;28;20045;-85
2024/01/25 11:54:54;;;;;;;102.07;95.13;;;7.30;99.90;;;;;;12571272;28;20060;-84
2024/01/25 12:00:56;;;;;;;104.30;97.47;;;7.30;99.90;;;;;;12605347;28;20544;-84
2024/01/25 12:06:59;;;;;;;115.15;107.07;;;7.40;99.90;;;;;;12597673;28;20507;-85
2024/01/25 12:13:01;;;;;;;109.90;102.53;;;7.40;99.90;;;;;;12597018;28;20048;-83
2024/01/25 12:19:03;;;;;;;114.57;106.93;;;7.40;99.90;;;;;;12598705;28;20053;-84
2024/01/25 12:25:15;;;;;;;114.70;106.88;;;7.60;99.90;;;;;;12596678;28;20056;-81
2024/01/25 12:31:17;;;;;;;109.53;102.13;;;7.60;99.90;;;;;;12600811;28;20098;-80
2024/01/25 12:37:19;;;;;;;105.45;98.70;;;7.60;99.90;;;;;;12593990;28;20135;-80
2024/01/25 12:43:21;;;;;;;112.00;104.13;;;7.60;99.90;;;;;;12593224;28;20094;-80
2024/01/25 12:49:24;;;;;;;121.03;112.85;;;7.80;99.90;;;;;;12590384;28;20048;-81
2024/01/25 12:55:26;;;;;;;109.88;102.05;;;7.70;99.90;;;;;;12602675;28;20048;-81
2024/01/25 13:01:28;;;;;;;106.35;99.45;;;7.70;99.90;;;;;;12605913;28;20059;-80
2024/01/25 13:07:30;;;;;;;100.40;93.90;;;7.60;99.90;;;;;;12615526;28;20135;-81
2024/01/25 13:13:31;;;;;;;116.90;109.78;;;7.60;99.90;;;;;;12600877;28;20049;-84
2024/01/25 13:19:34;;;;;;;97.93;90.88;;;7.60;99.90;;;;;;12567680;28;20069;-81
2024/01/25 13:25:36;;;;;;;88.28;82.25;;;7.50;99.90;;;;;;12559416;28;20049;-80
2024/01/25 13:31:41;;;;;;;95.28;89.32;;;7.60;99.90;;;;;;12586179;28;20496;-81
2024/01/25 13:37:43;;;;;;;97.28;90.97;;;7.50;99.90;;;;;;12558363;28;20072;-81
2024/01/25 13:43:45;;;;;;;110.05;102.82;;;7.50;99.90;;;;;;12559395;28;20059;-82
2024/01/25 13:49:47;;;;;;;109.43;102.78;;;7.40;99.90;;;;;;12569627;28;20060;-82
2024/01/25 13:55:50;;;;;;;102.45;96.05;;;7.30;99.90;;;;;;12598493;28;20051;-81
2024/01/25 14:01:52;;;;;;;97.53;91.15;;;7.20;99.90;;;;;;12592834;28;20112;-81
2024/01/25 14:07:54;;;;;;;101.63;95.63;;;7.30;99.90;;;;;;12610562;28;20204;-82
2024/01/25 14:13:56;;;;;;;113.80;106.28;;;7.20;99.90;;;;;;12616015;28;20105;-81
2024/01/25 14:19:58;;;;;;;106.88;100.00;;;7.10;99.90;;;;;;12607892;28;20053;-82
2024/01/25 14:26:01;;;;;;;107.43;100.30;;;7.10;99.90;;;;;;12598695;28;20484;-82
2024/01/25 14:32:03;;;;;;;104.97;98.25;;;7.00;99.90;;;;;;12593427;28;20049;-81
2024/01/25 14:38:05;;;;;;;112.22;104.25;;;7.00;99.90;;;;;;12587475;28;20416;-80
2024/01/25 14:44:07;;;;;;;116.55;108.30;;;6.80;99.90;;;;;;12605571;28;20049;-80
2024/01/25 14:50:09;;;;;;;116.07;108.13;;;6.70;99.90;;;;;;12637087;28;20052;-81
2024/01/25 14:56:12;;;;;;;115.18;106.88;;;6.60;99.90;;;;;;12640123;28;20067;-80
2024/01/25 15:02:14;;;;;;;118.20;110.00;;;6.40;99.90;;;;;;12637582;28;20348;-81
2024/01/25 15:08:16;;;;;;;117.60;109.55;;;6.40;99.90;;;;;;12616761;28;20047;-80
2024/01/25 15:14:18;;;;;;;112.93;105.20;;;6.30;99.90;;;;;;12596867;28;20500;-80
2024/01/25 15:20:21;;;;;;;110.78;103.03;;;6.20;99.90;;;;;;12613409;28;20053;-79
2024/01/25 15:26:23;;;;;;;113.85;105.78;;;6.10;99.90;;;;;;12613699;28;20044;-80
2024/01/25 15:32:25;;;;;;;109.95;102.35;;;6.10;99.90;;;;;;12622098;28;20060;-80
2024/01/25 15:38:27;;;;;;;106.95;99.38;;;6.00;99.90;;;;;;12631789;28;20071;-79
2024/01/25 15:44:29;;;;;;;107.63;100.22;;;5.90;99.90;;;;;;12619327;28;20480;-79
2024/01/25 15:50:31;;;;;;;101.00;93.70;;;5.90;99.90;;;;;;12621814;28;20080;-79
2024/01/25 15:56:33;;;;;;;101.43;94.03;;;5.80;99.90;;;;;;12640232;28;20063;-80
2024/01/25 16:02:34;;;;;;;99.25;91.32;;;5.70;99.90;;;;;;12618008;28;20052;-80
2024/01/25 16:08:36;;;;;;;95.47;88.72;;;5.60;99.90;;;;;;12619548;28;20048;-80
2024/01/25 16:14:39;;;;;;;97.18;90.07;;;5.60;99.90;;;;;;12646534;28;20048;-81
2024/01/25 16:20:41;;;;;;;92.97;85.78;;;5.50;99.90;;;;;;12593103;28;20049;-80
2024/01/25 16:26:43;;;;;;;94.85;87.43;;;5.50;99.90;;;;;;12635141;28;20071;-80
2024/01/25 16:32:44;;;;;;;95.18;87.82;;;5.50;99.90;;;;;;12624955;28;20064;-80
2024/01/25 16:38:46;;;;;;;93.50;85.78;;;5.50;99.90;;;;;;12611545;28;20052;-81
2024/01/25 16:44:49;;;;;;;87.95;81.35;;;5.40;99.90;;;;;;12621438;28;20048;-80
2024/01/25 16:50:51;;;;;;;86.55;80.18;;;5.40;99.90;;;;;;12628756;28;20059;-79
2024/01/25 16:56:53;;;;;;;85.22;78.88;;;5.40;99.90;;;;;;12622876;28;20040;-80
2024/01/25 17:02:55;;;;;;;92.90;86.35;;;5.30;99.90;;;;;;12642824;28;20047;-85
2024/01/25 17:08:57;;;;;;;93.93;87.15;;;5.30;99.90;;;;;;12581257;28;20118;-86
2024/01/25 17:14:59;;;;;;;93.00;85.80;;;5.30;99.90;;;;;;12634444;28;20056;-86
2024/01/25 17:21:01;;;;;;;85.88;79.38;;;5.30;99.90;;;;;;12577880;28;20463;-86
2024/01/25 17:27:03;;;;;;;86.05;79.47;;;5.30;99.90;;;;;;12604613;28;20057;-86
2024/01/25 17:33:05;;;;;;;90.00;82.53;;;5.40;99.90;;;;;;12604057;28;20049;-86
2024/01/25 17:39:08;;;;;;;90.35;83.95;;;5.50;99.90;;;;;;12603075;28;20044;-86
2024/01/25 17:45:10;;;;;;;94.32;87.35;;;5.50;99.90;;;;;;12609340;28;20051;-86
2024/01/25 17:51:15;;;;;;;98.05;90.57;;;5.60;99.90;;;;;;12622903;28;20044;-86
2024/01/25 17:57:17;;;;;;;99.93;92.88;;;5.70;99.90;;;;;;12596725;28;20059;-85
2024/01/25 18:03:19;;;;;;;99.35;92.13;;;5.70;99.90;;;;;;12601892;28;20090;-86
2024/01/25 18:09:23;;;;;;;98.50;91.13;;;5.70;99.90;;;;;;12608152;28;20568;-87
2024/01/25 18:15:25;;;;;;;98.93;92.75;;;5.80;99.90;;;;;;12614165;28;20064;-87
2024/01/25 18:21:27;;;;;;;106.28;98.82;;;5.80;99.90;;;;;;12602274;28;20058;-86
2024/01/25 18:27:31;;;;;;;102.63;95.45;;;5.80;99.90;;;;;;12598525;28;20048;-87
2024/01/25 18:33:35;;;;;;;97.85;90.95;;;5.90;99.90;;;;;;12590770;28;20419;-86
2024/01/25 18:39:37;;;;;;;103.43;96.68;;;5.80;99.90;;;;;;12599529;28;20052;-86
2024/01/25 18:45:39;;;;;;;103.50;96.68;;;5.80;99.90;;;;;;12603531;28;20055;-85
2024/01/25 18:51:41;;;;;;;104.80;98.18;;;5.70;99.90;;;;;;12605069;28;20044;-86
2024/01/25 18:57:43;;;;;;;104.57;97.97;;;5.70;99.90;;;;;;12628057;28;20055;-87
2024/01/25 19:03:45;;;;;;;97.03;91.03;;;5.60;99.90;;;;;;12596023;28;20052;-86
2024/01/25 19:09:47;;;;;;;96.78;89.90;;;5.60;99.90;;;;;;12582394;28;20049;-83
2024/01/25 19:15:49;;;;;;;93.40;87.07;;;5.60;99.90;;;;;;12607277;28;20052;-87
2024/01/25 19:21:51;;;;;;;99.55;91.82;;;5.60;99.90;;;;;;12606167;28;20048;-84
2024/01/25 19:27:53;;;;;;;96.85;90.90;;;5.60;99.90;;;;;;12655624;28;20048;-84
2024/01/25 19:33:55;;;;;;;100.53;93.88;;;5.50;99.90;;;;;;12621376;28;20059;-84
2024/01/25 19:39:58;;;;;;;97.18;90.72;;;5.50;99.90;;;;;;12634756;28;20049;-85
2024/01/25 19:46:00;;;;;;;99.88;93.30;;;5.50;99.90;;;;;;12638245;28;20068;-85
2024/01/25 19:52:03;;;;;;;101.22;94.43;;;5.60;99.90;;;;;;12626996;28;20044;-84
2024/01/25 19:58:05;;;;;;;101.82;95.30;;;5.70;99.90;;;;;;12623064;28;20064;-84
2024/01/25 20:04:08;;;;;;;102.70;96.28;;;5.70;99.90;;;;;;12626383;28;20048;-84
2024/01/25 20:10:10;;;;;;;109.22;101.65;;;5.70;99.90;;;;;;12602687;28;20055;-84
2024/01/25 20:16:12;;;;;;;108.28;100.97;;;5.70;99.90;;;;;;12616824;28;20051;-83
2024/01/25 20:22:14;;;;;;;114.40;106.65;;;5.80;99.90;;;;;;12615867;28;20042;-84
2024/01/25 20:28:16;;;;;;;115.05;107.68;;;5.80;99.90;;;;;;12618731;28;20052;-83
2024/01/25 20:34:18;;;;;;;113.90;106.57;;;5.80;99.90;;;;;;12627516;28;20055;-84
2024/01/25 20:40:21;;;;;;;115.38;107.57;;;5.80;99.90;;;;;;12635623;28;20517;-83
2024/01/25 20:46:22;;;;;;;114.00;106.45;;;5.80;99.90;;;;;;12626548;28;20587;-84
2024/01/25 20:52:24;;;;;;;118.25;110.72;;;5.80;99.90;;;;;;12613665;28;20049;-85
2024/01/25 20:58:26;;;;;;;115.78;108.65;;;5.80;99.90;;;;;;12652289;28;20056;-84
2024/01/25 21:04:31;;;;;;;122.43;114.68;;;5.80;99.90;;;;;;12627599;28;20041;-84
2024/01/25 21:10:33;;;;;;;;;;;5.80;99.90;;;;;;12627926;28;20056;-84
2024/01/25 21:16:35;;;;;;;120.75;113.22;;;5.90;99.90;;;;;;12626701;28;19986;-84
2024/01/25 21:22:37;;;;;;;123.47;115.57;;;5.90;99.90;;;;;;12624409;28;20063;-83
2024/01/25 21:28:39;;;;;;;127.95;120.10;;;6.10;99.90;;;;;;12629552;28;20045;-84
2024/01/25 21:34:41;;;;;;;130.15;121.78;;;6.10;99.90;;;;;;12632223;28;20059;-84
2024/01/25 21:40:43;;;;;;;132.32;123.72;;;6.00;99.90;;;;;;12623848;28;20056;-85
2024/01/25 21:46:45;;;;;;;135.30;126.43;;;6.10;99.90;;;;;;12622526;28;20044;-81
2024/01/25 21:52:47;;;;;;;123.32;115.72;;;6.00;99.90;;;;;;12620287;28;20052;-80
2024/01/25 21:58:49;;;;;;;112.63;105.32;;;6.00;99.90;;;;;;12620333;28;20086;-80
2024/01/25 22:04:52;;;;;;;120.95;112.97;;;6.00;99.90;;;;;;12634695;28;20048;-79
2024/01/25 22:10:54;;;;;;;120.43;112.35;;;6.10;99.90;;;;;;12609527;28;20157;-79
2024/01/25 22:16:56;;;;;;;117.65;110.47;;;6.20;99.90;;;;;;12618096;28;20068;-80
2024/01/25 22:22:57;;;;;;;131.48;123.38;;;6.30;99.90;;;;;;12620229;28;20079;-80
2024/01/25 22:28:59;;;;;;;132.82;124.03;;;6.20;99.90;;;;;;12615323;28;20048;-85
2024/01/25 22:35:01;;;;;;;124.40;116.53;;;6.30;99.90;;;;;;12624319;28;20079;-81
2024/01/25 22:41:03;;;;;;;133.57;125.30;;;6.30;99.90;;;;;;12623185;28;20510;-81
2024/01/25 22:47:06;;;;;;;126.13;117.88;;;6.30;99.90;;;;;;12618029;28;20083;-79
2024/01/25 22:53:10;;;;;;;136.25;127.88;;;6.30;99.90;;;;;;12625759;28;20508;-80
2024/01/25 22:59:12;;;;;;;131.68;123.45;;;6.40;99.90;;;;;;12610154;28;20052;-81
2024/01/25 23:05:16;;;;;;;138.38;130.05;;;6.40;99.90;;;;;;12630088;28;20091;-81
2024/01/25 23:11:18;;;;;;;141.20;132.00;;;6.50;99.90;;;;;;12614663;28;20079;-80
2024/01/25 23:17:20;;;;;;;141.82;132.35;;;6.40;99.90;;;;;;12590253;28;20519;-81
2024/01/25 23:23:22;;;;;;;140.20;131.02;;;6.50;99.90;;;;;;12622330;28;20125;-81
2024/01/25 23:29:24;;;;;;;132.65;123.60;;;6.40;99.90;;;;;;12628802;28;20048;-82
2024/01/25 23:35:26;;;;;;;142.02;133.23;;;6.50;99.90;;;;;;12612175;28;20044;-80
2024/01/25 23:41:28;;;;;;;154.35;144.00;;;6.50;99.90;;;;;;12624496;28;20128;-81
2024/01/25 23:47:30;;;;;;;166.73;156.35;;;6.50;99.90;;;;;;12614655;28;20048;-82
2024/01/25 23:53:32;;;;;;;166.68;156.43;;;6.60;99.90;;;;;;12563600;28;20437;-81
2024/01/25 23:59:34;;;;;;;172.38;161.95;;;6.60;99.90;;;;;;12527272;28;20076;-81
